createdAt,value
2018-12-19T00:00:04.285Z,49.50
2018-12-19T00:02:32.620Z,47.87
2018-12-19T00:05:01.495Z,48.03
2018-12-19T00:07:29.796Z,46.93
2018-12-19T00:09:58.504Z,47.17
2018-12-19T00:12:26.830Z,45.00
2018-12-19T00:14:55.157Z,45.03
2018-12-19T00:17:23.498Z,45.40
2018-12-19T00:19:51.822Z,44.33
2018-12-19T00:22:20.156Z,46.17
2018-12-19T00:24:48.499Z,45.70
2018-12-19T00:27:16.846Z,46.70
2018-12-19T00:29:45.169Z,46.23
2018-12-19T00:32:13.503Z,44.20
2018-12-19T00:34:41.846Z,44.97
2018-12-19T00:37:10.243Z,43.60
2018-12-19T00:39:38.568Z,44.07
2018-12-19T00:42:06.903Z,44.70
2018-12-19T00:44:35.240Z,44.77
2018-12-19T00:47:03.573Z,45.37
2018-12-19T00:49:31.897Z,44.83
2018-12-19T00:52:00.227Z,45.20
2018-12-19T00:54:28.576Z,44.13
2018-12-19T00:56:56.896Z,44.57
2018-12-19T00:59:25.223Z,44.97
2018-12-19T01:01:53.570Z,45.33
2018-12-19T01:04:21.882Z,45.63
2018-12-19T01:06:50.217Z,46.73
2018-12-19T01:09:18.543Z,45.13
2018-12-19T01:11:47.185Z,44.93
2018-12-19T01:14:15.512Z,44.80
2018-12-19T01:16:43.837Z,45.50
2018-12-19T01:19:12.167Z,43.93
2018-12-19T01:21:40.500Z,45.33
2018-12-19T01:24:08.846Z,44.73
2018-12-19T01:26:37.176Z,44.90
2018-12-19T01:29:05.502Z,46.03
2018-12-19T01:31:33.836Z,45.83
2018-12-19T01:34:02.170Z,44.47
2018-12-19T01:36:30.506Z,45.37
2018-12-19T01:38:58.829Z,46.30
2018-12-19T01:41:27.169Z,47.10
2018-12-19T01:43:55.492Z,49.23
2018-12-19T01:46:23.814Z,49.07
2018-12-19T01:48:52.145Z,47.40
2018-12-19T01:51:20.480Z,49.43
2018-12-19T01:53:48.811Z,46.63
2018-12-19T01:56:17.139Z,48.03
2018-12-19T01:58:45.476Z,48.27
2018-12-19T02:01:13.799Z,47.63
2018-12-19T02:03:42.136Z,46.23
2018-12-19T02:06:10.462Z,47.47
2018-12-19T02:08:38.806Z,46.07
2018-12-19T02:11:07.148Z,46.93
2018-12-19T02:13:35.476Z,46.67
2018-12-19T02:16:03.801Z,46.40
2018-12-19T02:18:32.129Z,46.60
2018-12-19T02:21:01.431Z,46.83
2018-12-19T02:23:29.761Z,45.77
2018-12-19T02:25:58.103Z,46.93
2018-12-19T02:28:26.419Z,46.33
2018-12-19T02:30:54.766Z,46.13
2018-12-19T02:33:23.100Z,45.70
2018-12-19T02:35:51.426Z,45.80
2018-12-19T02:38:19.763Z,46.67
2018-12-19T02:40:48.099Z,45.40
2018-12-19T02:43:16.423Z,45.40
2018-12-19T02:45:44.743Z,43.73
2018-12-19T02:48:13.094Z,45.30
2018-12-19T02:50:41.426Z,44.10
2018-12-19T02:53:09.753Z,45.20
2018-12-19T02:55:38.074Z,43.93
2018-12-19T02:58:06.407Z,44.57
2018-12-19T03:00:34.740Z,43.57
2018-12-19T03:03:03.066Z,47.50
2018-12-19T03:05:31.429Z,48.67
2018-12-19T03:07:59.723Z,45.77
2018-12-19T03:10:28.052Z,48.17
2018-12-19T03:12:56.378Z,45.27
2018-12-19T03:15:24.789Z,43.93
2018-12-19T03:17:53.109Z,45.27
2018-12-19T03:20:21.433Z,43.83
2018-12-19T03:22:49.771Z,43.83
2018-12-19T03:25:18.086Z,45.13
2018-12-19T03:27:46.440Z,43.07
2018-12-19T03:30:14.772Z,44.33
2018-12-19T03:32:43.093Z,44.07
2018-12-19T03:35:11.428Z,44.90
2018-12-19T03:37:39.763Z,46.30
2018-12-19T03:40:08.092Z,44.93
2018-12-19T03:42:36.421Z,44.93
2018-12-19T03:45:04.753Z,44.03
2018-12-19T03:47:33.078Z,45.83
2018-12-19T03:50:01.432Z,43.30
2018-12-19T03:52:29.954Z,44.37
2018-12-19T03:54:58.056Z,44.47
2018-12-19T03:57:26.387Z,46.03
2018-12-19T03:59:54.709Z,47.03
2018-12-19T04:02:23.049Z,48.50
2018-12-19T04:04:51.376Z,44.73
2018-12-19T04:07:19.704Z,46.67
2018-12-19T04:09:48.035Z,46.07
2018-12-19T04:12:16.357Z,47.53
2018-12-19T04:14:44.688Z,48.10
2018-12-19T04:17:13.019Z,48.97
2018-12-19T04:19:41.341Z,48.23
2018-12-19T04:22:09.667Z,47.20
2018-12-19T04:24:37.995Z,46.77
2018-12-19T04:27:06.323Z,47.17
2018-12-19T04:29:34.647Z,46.53
2018-12-19T04:32:02.986Z,47.50
2018-12-19T04:34:31.322Z,47.00
2018-12-19T04:36:59.649Z,49.00
2018-12-19T04:39:27.987Z,47.80
2018-12-19T04:41:56.316Z,46.20
2018-12-19T04:44:24.869Z,48.73
2018-12-19T04:46:52.971Z,47.87
2018-12-19T04:49:21.325Z,48.30
2018-12-19T04:51:49.661Z,47.47
2018-12-19T04:54:17.982Z,46.57
2018-12-19T04:56:46.338Z,47.33
2018-12-19T04:59:14.702Z,49.53
2018-12-19T05:01:43.050Z,48.60
2018-12-19T05:04:11.362Z,49.07
2018-12-19T05:06:39.692Z,49.47
2018-12-19T05:09:08.017Z,50.07
2018-12-19T05:11:36.361Z,49.37
2018-12-19T05:14:04.685Z,48.97
2018-12-19T05:16:33.043Z,48.50
2018-12-19T05:19:01.679Z,48.87
2018-12-19T05:21:30.020Z,48.57
2018-12-19T05:23:58.592Z,49.17
2018-12-19T05:26:26.692Z,48.87
2018-12-19T05:28:55.016Z,53.63
2018-12-19T05:31:23.365Z,52.23
2018-12-19T05:33:51.695Z,54.33
2018-12-19T05:36:20.039Z,53.33
2018-12-19T05:38:48.374Z,51.90
2018-12-19T05:41:16.709Z,51.17
2018-12-19T05:43:45.352Z,54.03
2018-12-19T05:46:13.676Z,53.20
2018-12-19T05:48:42.001Z,51.83
2018-12-19T05:51:10.337Z,51.07
2018-12-19T05:53:38.670Z,46.33
2018-12-19T05:56:07.003Z,47.03
2018-12-19T05:58:35.372Z,44.80
2018-12-19T06:01:03.685Z,45.70
2018-12-19T06:03:32.007Z,43.80
2018-12-19T06:06:00.343Z,43.33
2018-12-19T06:08:28.668Z,44.80
2018-12-19T06:10:57.000Z,44.73
2018-12-19T06:13:25.327Z,40.87
2018-12-19T06:15:53.658Z,42.77
2018-12-19T06:18:21.986Z,43.70
2018-12-19T06:20:50.315Z,43.17
2018-12-19T06:23:18.664Z,42.30
2018-12-19T06:25:46.991Z,42.27
2018-12-19T06:28:15.333Z,42.80
2018-12-19T06:30:43.674Z,43.53
2018-12-19T06:33:12.012Z,43.77
2018-12-19T06:35:40.336Z,42.43
2018-12-19T06:38:08.667Z,42.77
2018-12-19T06:40:37.000Z,46.97
2018-12-19T06:43:05.361Z,46.20
2018-12-19T06:45:33.679Z,42.93
2018-12-19T06:48:02.010Z,43.13
2018-12-19T06:50:30.351Z,42.90
2018-12-19T06:52:58.675Z,46.10
2018-12-19T06:55:27.002Z,43.07
2018-12-19T06:57:55.332Z,44.70
2018-12-19T07:00:23.664Z,43.47
2018-12-19T07:02:52.741Z,47.90
2018-12-19T07:05:21.166Z,46.30
2018-12-19T07:07:49.493Z,45.07
2018-12-19T07:10:17.839Z,45.13
2018-12-19T07:12:46.199Z,43.10
2018-12-19T07:15:14.542Z,44.13
2018-12-19T07:17:43.098Z,43.33
2018-12-19T07:20:11.203Z,45.03
2018-12-19T07:22:39.620Z,45.37
2018-12-19T07:25:07.961Z,45.80
2018-12-19T07:27:36.300Z,56.40
2018-12-19T07:30:04.910Z,67.80
2018-12-19T07:32:33.240Z,57.13
2018-12-19T07:35:01.588Z,51.20
2018-12-19T07:37:29.967Z,52.23
2018-12-19T07:39:58.268Z,50.87
2018-12-19T07:42:26.588Z,52.87
2018-12-19T07:44:54.921Z,49.57
2018-12-19T07:47:23.480Z,46.83
2018-12-19T07:49:51.585Z,48.93
2018-12-19T07:52:19.906Z,51.47
2018-12-19T07:54:48.249Z,88.80
2018-12-19T07:57:16.595Z,51.77
2018-12-19T07:59:44.939Z,52.37
2018-12-19T08:02:13.293Z,49.17
2018-12-19T08:04:41.623Z,50.27
2018-12-19T08:07:10.016Z,46.30
2018-12-19T08:09:38.383Z,46.00
2018-12-19T08:12:07.075Z,47.90
2018-12-19T08:14:35.421Z,47.00
2018-12-19T08:17:03.744Z,46.27
2018-12-19T08:19:32.113Z,48.17
2018-12-19T08:22:00.440Z,48.73
2018-12-19T08:24:28.779Z,48.40
2018-12-19T08:26:57.135Z,49.10
2018-12-19T08:29:25.472Z,50.63
2018-12-19T08:31:53.826Z,50.73
2018-12-19T08:34:22.150Z,51.80
2018-12-19T08:36:50.490Z,51.33
2018-12-19T08:39:18.834Z,49.40
2018-12-19T08:41:47.178Z,49.03
2018-12-19T08:44:15.511Z,49.27
2018-12-19T08:46:43.839Z,49.87
2018-12-19T08:49:12.165Z,49.63
2018-12-19T08:51:40.515Z,50.87
2018-12-19T08:54:08.850Z,51.60
2018-12-19T08:56:37.182Z,49.27
2018-12-19T08:59:05.508Z,48.90
2018-12-19T09:01:33.840Z,46.93
2018-12-19T09:04:02.185Z,47.10
2018-12-19T09:06:30.538Z,42.30
2018-12-19T09:08:58.882Z,44.93
2018-12-19T09:11:27.216Z,47.40
2018-12-19T09:13:55.864Z,44.53
2018-12-19T09:16:24.200Z,44.17
2018-12-19T09:18:52.525Z,40.97
2018-12-19T09:21:20.862Z,42.67
2018-12-19T09:23:49.189Z,43.80
2018-12-19T09:26:17.524Z,41.93
2018-12-19T09:28:45.887Z,41.23
2018-12-19T09:31:14.216Z,39.70
2018-12-19T09:33:42.801Z,41.50
2018-12-19T09:36:10.926Z,40.23
2018-12-19T09:38:39.251Z,37.17
2018-12-19T09:41:12.315Z,38.63
2018-12-19T09:43:35.920Z,35.47
2018-12-19T09:46:04.602Z,40.63
2018-12-19T09:48:32.943Z,35.90
2018-12-19T09:51:01.280Z,30.90
2018-12-19T09:53:29.613Z,39.37
2018-12-19T09:55:57.951Z,38.97
2018-12-19T09:58:26.295Z,39.90
2018-12-19T10:00:54.626Z,41.60
2018-12-19T10:03:22.957Z,39.87
2018-12-19T10:05:51.281Z,38.97
2018-12-19T10:08:19.615Z,38.77
2018-12-19T10:10:47.961Z,34.40
2018-12-19T10:13:16.287Z,36.87
2018-12-19T10:15:44.615Z,30.60
2018-12-19T10:18:13.915Z,35.77
2018-12-19T10:20:41.292Z,35.00
2018-12-19T10:23:09.625Z,34.63
2018-12-19T10:25:37.986Z,36.87
2018-12-19T10:28:06.309Z,34.83
2018-12-19T10:30:34.655Z,36.27
2018-12-19T10:33:02.987Z,36.40
2018-12-19T10:35:31.328Z,39.30
2018-12-19T10:37:59.665Z,36.37
2018-12-19T10:40:27.998Z,36.80
2018-12-19T10:42:56.645Z,37.87
2018-12-19T10:45:24.985Z,38.40
2018-12-19T10:47:53.321Z,39.37
2018-12-19T10:50:21.657Z,40.93
2018-12-19T10:52:49.977Z,40.33
2018-12-19T10:55:18.311Z,39.87
2018-12-19T10:57:46.644Z,41.70
2018-12-19T11:00:14.978Z,50.03
2018-12-19T11:02:43.306Z,44.63
2018-12-19T11:05:11.643Z,39.57
2018-12-19T11:07:39.982Z,43.20
2018-12-19T11:10:08.330Z,39.70
2018-12-19T11:12:36.658Z,37.43
2018-12-19T11:15:05.002Z,39.07
2018-12-19T11:17:33.327Z,35.67
2018-12-19T11:20:01.748Z,34.57
2018-12-19T11:22:30.090Z,32.63
2018-12-19T11:24:58.468Z,33.77
2018-12-19T11:27:26.797Z,32.30
2018-12-19T11:29:55.342Z,33.63
2018-12-19T11:32:23.676Z,30.43
2018-12-19T11:34:52.027Z,31.07
2018-12-19T11:37:20.364Z,29.67
2018-12-19T11:39:48.714Z,31.03
2018-12-19T11:42:17.031Z,31.07
2018-12-19T11:44:45.368Z,29.00
2018-12-19T11:47:13.690Z,27.70
2018-12-19T11:49:42.019Z,26.30
2018-12-19T11:52:10.377Z,26.33
2018-12-19T11:54:38.697Z,27.23
2018-12-19T11:57:07.036Z,26.60
2018-12-19T11:59:35.389Z,22.77
2018-12-19T12:02:03.716Z,24.70
2018-12-19T12:04:32.050Z,24.17
2018-12-19T12:07:00.405Z,24.00
2018-12-19T12:09:28.751Z,22.70
2018-12-19T12:11:57.099Z,24.57
2018-12-19T12:14:25.661Z,26.03
2018-12-19T12:16:53.781Z,25.90
2018-12-19T12:19:22.116Z,31.67
2018-12-19T12:21:50.460Z,32.03
2018-12-19T12:24:18.809Z,25.77
2018-12-19T12:26:47.136Z,25.47
2018-12-19T12:29:15.470Z,22.43
2018-12-19T12:31:44.314Z,25.87
2018-12-19T12:34:12.417Z,27.17
2018-12-19T12:36:40.749Z,24.17
2018-12-19T12:39:09.092Z,24.60
2018-12-19T12:41:37.414Z,23.93
2018-12-19T12:44:05.743Z,22.87
2018-12-19T12:46:34.079Z,23.77
2018-12-19T12:49:02.419Z,21.73
2018-12-19T12:51:31.097Z,27.57
2018-12-19T12:53:59.664Z,24.23
2018-12-19T12:56:27.860Z,22.40
2018-12-19T12:58:56.265Z,22.03
2018-12-19T13:01:24.546Z,23.77
2018-12-19T13:03:52.880Z,23.73
2018-12-19T13:06:21.213Z,24.20
2018-12-19T13:08:49.533Z,24.70
2018-12-19T13:11:17.876Z,30.23
2018-12-19T13:13:46.215Z,25.07
2018-12-19T13:16:14.563Z,24.53
2018-12-19T13:18:42.894Z,23.17
2018-12-19T13:21:11.234Z,23.43
2018-12-19T13:23:39.555Z,23.50
2018-12-19T13:26:07.920Z,21.43
2018-12-19T13:28:36.241Z,19.30
2018-12-19T13:31:04.598Z,21.77
2018-12-19T13:33:33.332Z,20.33
2018-12-19T13:36:01.438Z,20.50
2018-12-19T13:38:29.764Z,21.50
2018-12-19T13:40:58.323Z,23.37
2018-12-19T13:43:26.439Z,22.67
2018-12-19T13:45:54.776Z,21.47
2018-12-19T13:48:23.122Z,22.03
2018-12-19T13:50:51.464Z,22.50
2018-12-19T13:53:19.805Z,21.90
2018-12-19T13:55:48.147Z,22.83
2018-12-19T13:58:16.487Z,20.47
2018-12-19T14:00:44.809Z,21.80
2018-12-19T14:03:13.436Z,23.67
2018-12-19T14:05:41.800Z,22.53
2018-12-19T14:08:10.138Z,24.13
2018-12-19T14:10:38.468Z,25.73
2018-12-19T14:13:06.804Z,26.60
2018-12-19T14:15:35.138Z,28.47
2018-12-19T14:18:03.469Z,26.97
2018-12-19T14:20:31.806Z,30.90
2018-12-19T14:23:00.144Z,31.47
2018-12-19T14:25:28.518Z,31.93
2018-12-19T14:27:56.850Z,31.20
2018-12-19T14:30:25.519Z,30.47
2018-12-19T14:32:53.849Z,29.70
2018-12-19T14:35:22.213Z,31.27
2018-12-19T14:37:50.552Z,28.53
2018-12-19T14:40:18.906Z,32.07
2018-12-19T14:42:47.261Z,31.70
2018-12-19T14:45:15.599Z,31.07
2018-12-19T14:47:44.175Z,30.30
2018-12-19T14:50:12.286Z,31.90
2018-12-19T14:52:40.635Z,28.90
2018-12-19T14:55:09.664Z,28.50
2018-12-19T14:57:38.021Z,27.93
2018-12-19T15:00:06.362Z,28.93
2018-12-19T15:02:34.712Z,31.97
2018-12-19T15:05:03.107Z,30.27
2018-12-19T15:07:31.462Z,33.00
2018-12-19T15:09:59.829Z,29.80
2018-12-19T15:12:28.876Z,30.50
2018-12-19T15:14:57.233Z,29.43
2018-12-19T15:17:26.294Z,27.63
2018-12-19T15:19:54.631Z,28.63
2018-12-19T15:22:22.989Z,28.83
2018-12-19T15:24:51.558Z,29.80
2018-12-19T15:27:19.658Z,28.03
2018-12-19T15:29:53.415Z,26.27
2018-12-19T15:32:20.634Z,27.87
2018-12-19T15:34:48.961Z,29.33
2018-12-19T15:37:17.301Z,33.60
2018-12-19T15:39:45.643Z,30.00
2018-12-19T15:42:13.966Z,30.67
2018-12-19T15:44:45.806Z,30.73
2018-12-19T15:47:14.175Z,28.10
2018-12-19T15:49:43.177Z,29.67
2018-12-19T15:52:11.515Z,30.27
2018-12-19T15:54:39.853Z,30.83
2018-12-19T15:57:08.188Z,31.37
2018-12-19T15:59:36.539Z,30.73
2018-12-19T16:02:05.644Z,29.33
2018-12-19T16:04:33.984Z,32.10
2018-12-19T16:07:02.349Z,31.83
2018-12-19T16:09:30.649Z,32.20
2018-12-19T16:11:59.274Z,33.43
2018-12-19T16:14:27.388Z,33.53
2018-12-19T16:16:55.793Z,33.23
2018-12-19T16:19:24.119Z,37.90
2018-12-19T16:21:52.455Z,36.57
2018-12-19T16:24:20.791Z,40.07
2018-12-19T16:26:49.176Z,36.43
2018-12-19T16:29:17.631Z,33.07
2018-12-19T16:31:45.991Z,34.27
2018-12-19T16:34:14.320Z,33.00
2018-12-19T16:36:42.751Z,33.63
2018-12-19T16:39:11.212Z,35.13
2018-12-19T16:41:39.575Z,34.40
2018-12-19T16:44:07.953Z,35.33
2018-12-19T16:46:36.286Z,34.73
2018-12-19T16:49:04.755Z,35.37
2018-12-19T16:51:33.138Z,35.37
2018-12-19T16:54:01.490Z,40.93
2018-12-19T16:56:29.873Z,39.63
2018-12-19T16:58:58.249Z,34.70
2018-12-19T17:01:26.574Z,38.60
2018-12-19T17:03:54.903Z,37.00
2018-12-19T17:06:23.229Z,37.20
2018-12-19T17:08:51.575Z,42.13
2018-12-19T17:11:21.983Z,39.03
2018-12-19T17:13:48.258Z,41.27
2018-12-19T17:16:16.598Z,38.30
2018-12-19T17:18:44.927Z,35.23
2018-12-19T17:21:13.489Z,44.33
2018-12-19T17:23:41.613Z,39.40
2018-12-19T17:26:09.945Z,38.43
2018-12-19T17:28:38.296Z,37.80
2018-12-19T17:31:06.660Z,36.13
2018-12-19T17:33:35.103Z,38.30
2018-12-19T17:36:03.436Z,36.37
2018-12-19T17:38:31.761Z,35.07
2018-12-19T17:41:00.093Z,37.83
2018-12-19T17:43:28.418Z,36.87
2018-12-19T17:45:56.750Z,37.13
2018-12-19T17:48:25.122Z,29.10
2018-12-19T17:50:54.475Z,31.30
2018-12-19T17:53:22.815Z,33.27
2018-12-19T17:55:51.133Z,32.30
2018-12-19T17:58:19.685Z,31.70
2018-12-19T18:00:47.817Z,31.17
2018-12-19T18:03:16.153Z,28.33
2018-12-19T18:05:44.501Z,28.07
2018-12-19T18:08:12.865Z,28.73
2018-12-19T18:10:41.249Z,23.93
2018-12-19T18:13:09.520Z,23.07
2018-12-19T18:15:37.887Z,25.13
2018-12-19T18:18:06.225Z,27.67
2018-12-19T18:20:34.561Z,31.50
2018-12-19T18:23:02.896Z,28.37
2018-12-19T18:25:31.281Z,26.33
2018-12-19T18:27:59.626Z,23.53
2018-12-19T18:30:27.982Z,27.23
2018-12-19T18:32:56.333Z,29.37
2018-12-19T18:35:24.673Z,27.30
2018-12-19T18:37:53.038Z,28.53
2018-12-19T18:40:21.598Z,25.53
2018-12-19T18:42:49.929Z,28.03
2018-12-19T18:45:18.279Z,28.93
2018-12-19T18:47:46.775Z,28.83
2018-12-19T18:50:15.112Z,28.40
2018-12-19T18:52:43.439Z,26.80
2018-12-19T18:55:11.808Z,28.73
2018-12-19T18:57:40.127Z,28.30
2018-12-19T19:00:09.349Z,29.07
2018-12-19T19:02:37.648Z,27.03
2018-12-19T19:05:06.016Z,44.47
2018-12-19T19:07:34.306Z,37.93
2018-12-19T19:10:02.643Z,29.17
2018-12-19T19:12:31.535Z,26.03
2018-12-19T19:14:59.677Z,24.90
2018-12-19T19:17:28.010Z,65.80
2018-12-19T19:19:56.353Z,28.13
2018-12-19T19:22:24.717Z,28.07
2018-12-19T19:24:53.046Z,26.93
2018-12-19T19:27:23.184Z,27.37
2018-12-19T19:29:51.530Z,29.27
2018-12-19T19:32:19.873Z,28.47
2018-12-19T19:34:48.213Z,27.93
2018-12-19T19:37:16.551Z,27.00
2018-12-19T19:39:44.887Z,27.30
2018-12-19T19:42:13.241Z,26.00
2018-12-19T19:44:41.565Z,26.63
2018-12-19T19:47:09.933Z,28.37
2018-12-19T19:49:38.278Z,28.00
2018-12-19T19:52:06.652Z,28.67
2018-12-19T19:54:34.998Z,29.90
2018-12-19T19:57:03.342Z,31.70
2018-12-19T19:59:31.702Z,29.40
2018-12-19T20:02:00.015Z,31.40
2018-12-19T20:04:28.588Z,29.03
2018-12-19T20:07:00.047Z,28.13
2018-12-19T20:09:25.036Z,31.17
2018-12-19T20:11:53.385Z,27.13
2018-12-19T20:14:21.731Z,29.37
2018-12-19T20:16:55.806Z,28.87
2018-12-19T20:19:24.182Z,28.90
2018-12-19T20:21:52.543Z,31.90
2018-12-19T20:24:20.876Z,32.50
2018-12-19T20:26:49.236Z,30.77
2018-12-19T20:29:17.578Z,30.73
2018-12-19T20:31:45.908Z,27.67
2018-12-19T20:34:14.519Z,28.80
2018-12-19T20:36:43.166Z,30.17
2018-12-19T20:39:11.561Z,31.03
2018-12-19T20:41:40.147Z,30.87
2018-12-19T20:44:08.253Z,31.70
2018-12-19T20:46:36.748Z,30.67
2018-12-19T20:49:05.323Z,29.53
2018-12-19T20:51:33.419Z,29.90
2018-12-19T20:54:01.758Z,30.63
2018-12-19T20:56:30.120Z,29.90
2018-12-19T20:58:58.497Z,30.93
2018-12-19T21:01:26.813Z,31.13
2018-12-19T21:03:55.151Z,33.70
2018-12-19T21:06:23.524Z,32.80
2018-12-19T21:08:51.868Z,31.47
2018-12-19T21:11:20.218Z,31.13
2018-12-19T21:13:48.558Z,31.53
2018-12-19T21:16:16.901Z,31.67
2018-12-19T21:18:45.232Z,30.67
2018-12-19T21:21:13.740Z,29.10
2018-12-19T21:23:42.084Z,30.03
2018-12-19T21:26:10.459Z,31.13
2018-12-19T21:28:38.838Z,32.03
2018-12-19T21:31:07.192Z,29.73
2018-12-19T21:33:35.549Z,33.00
2018-12-19T21:36:04.004Z,33.63
2018-12-19T21:38:32.245Z,36.20
2018-12-19T21:41:00.636Z,34.90
2018-12-19T21:43:28.927Z,34.87
2018-12-19T21:45:57.267Z,35.07
2018-12-19T21:48:25.653Z,32.07
2018-12-19T21:50:53.944Z,32.20
2018-12-19T21:53:22.303Z,34.40
2018-12-19T21:55:50.636Z,31.20
2018-12-19T21:58:18.975Z,32.63
2018-12-19T22:00:47.309Z,32.77
2018-12-19T22:03:15.727Z,30.60
2018-12-19T22:05:44.970Z,31.77
2018-12-19T22:08:13.360Z,32.43
2018-12-19T22:10:41.629Z,32.40
2018-12-19T22:13:10.101Z,33.40
2018-12-19T22:15:38.597Z,32.27
2018-12-19T22:18:13.103Z,32.97
2018-12-19T22:20:41.416Z,30.00
2018-12-19T22:23:09.834Z,32.77
2018-12-19T22:25:38.152Z,31.80
2018-12-19T22:28:06.530Z,30.23
2018-12-19T22:30:35.016Z,30.53
2018-12-19T22:33:03.446Z,33.17
2018-12-19T22:35:31.957Z,32.53
2018-12-19T22:38:00.236Z,32.13
2018-12-19T22:40:28.649Z,32.97
2018-12-19T22:42:56.895Z,32.13
2018-12-19T22:45:25.236Z,32.90
2018-12-19T22:47:53.673Z,32.87
2018-12-19T22:50:22.059Z,30.50
2018-12-19T22:52:51.282Z,31.67
2018-12-19T22:55:19.639Z,32.07
2018-12-19T22:57:48.197Z,31.80
2018-12-19T23:00:16.543Z,31.13
2018-12-19T23:02:51.067Z,31.40
2018-12-19T23:05:19.156Z,30.97
2018-12-19T23:07:47.641Z,33.93
2018-12-19T23:10:16.093Z,30.90
2018-12-19T23:12:44.617Z,32.60
2018-12-19T23:15:13.004Z,30.97
2018-12-19T23:17:41.985Z,29.83
2018-12-19T23:20:10.330Z,32.57
2018-12-19T23:22:38.621Z,30.97
2018-12-19T23:25:07.048Z,32.83
2018-12-19T23:27:35.422Z,31.20
2018-12-19T23:30:03.660Z,33.00
2018-12-19T23:32:32.000Z,31.57
2018-12-19T23:35:00.431Z,31.13
2018-12-19T23:37:28.643Z,30.03
2018-12-19T23:39:56.968Z,30.37
2018-12-19T23:42:25.303Z,31.83
2018-12-19T23:44:53.642Z,30.47
2018-12-19T23:47:21.994Z,32.53
2018-12-19T23:49:50.362Z,31.07
2018-12-19T23:52:18.802Z,29.27
2018-12-19T23:54:46.956Z,30.43
2018-12-19T23:57:15.296Z,33.27
2018-12-19T23:59:43.630Z,32.40
